Time;durP1;ratioP1;P1;durP2;ratioP2;P2;SDS_P1;SDS_P2;PMS_P1;PMS_P2;Temp;Humidity;BMP_temperature;BMP_pressure;BME280_temperature;BME280_humidity;BME280_pressure;Samples;Min_cycle;Max_cycle;Signal;HPM_P1;HPM_P2
2023/10/18 00:00:58;;;;;;;16.07;12.40;;;4.70;99.90;;;;;;5009337;28;20745;-27
2023/10/18 00:03:29;;;;;;;18.63;12.97;;;4.60;99.90;;;;;;5011923;28;20179;-28
2023/10/18 00:05:56;;;;;;;15.67;12.10;;;4.70;99.90;;;;;;5030624;28;20185;-28
2023/10/18 00:08:22;;;;;;;17.20;12.47;;;4.70;99.90;;;;;;5029019;28;20194;-28
2023/10/18 00:10:53;;;;;;;18.10;12.70;;;4.70;99.90;;;;;;5013174;28;20272;-28
2023/10/18 00:13:22;;;;;;;17.87;12.97;;;4.70;99.90;;;;;;5031577;28;20195;-27
2023/10/18 00:15:55;;;;;;;17.10;11.97;;;4.70;99.90;;;;;;5016273;28;20205;-27
2023/10/18 00:18:21;;;;;;;16.03;11.97;;;4.70;99.90;;;;;;5032091;28;20205;-27
2023/10/18 00:20:47;;;;;;;16.20;12.10;;;4.70;99.90;;;;;;5032453;28;20208;-28
2023/10/18 00:23:13;;;;;;;13.67;10.97;;;4.70;99.90;;;;;;5016291;28;20183;-27
2023/10/18 00:25:39;;;;;;;16.10;12.57;;;4.70;99.90;;;;;;5032390;28;20209;-26
2023/10/18 00:28:08;;;;;;;16.57;12.27;;;4.70;99.90;;;;;;5033967;28;20199;-27
2023/10/18 00:30:35;;;;;;;14.63;11.53;;;4.70;99.90;;;;;;5015648;28;20183;-27
2023/10/18 00:33:02;;;;;;;16.80;12.40;;;4.60;99.90;;;;;;5030789;28;20183;-28
2023/10/18 00:35:32;;;;;;;13.20;10.80;;;4.60;99.90;;;;;;5029837;28;20182;-27
2023/10/18 00:37:58;;;;;;;13.90;10.27;;;4.60;99.90;;;;;;5013054;28;20206;-28
2023/10/18 00:43:26;;;;;;;12.87;10.27;;;4.60;99.90;;;;;;5028289;28;20272;-27
2023/10/18 00:45:54;;;;;;;14.00;11.23;;;4.60;99.90;;;;;;5014445;28;20219;-28
2023/10/18 00:48:24;;;;;;;14.27;10.27;;;4.50;99.90;;;;;;5033118;28;20191;-28
2023/10/18 00:50:57;;;;;;;14.00;11.17;;;4.50;99.90;;;;;;5015348;28;20206;-26
2023/10/18 00:53:25;;;;;;;14.40;11.13;;;4.50;99.90;;;;;;5031699;28;20190;-28
2023/10/18 00:55:59;;;;;;;15.87;11.50;;;4.50;99.90;;;;;;5014016;28;20186;-28
2023/10/18 00:58:29;;;;;;;12.37;10.27;;;4.40;99.90;;;;;;5030472;28;20263;-27
2023/10/18 01:00:56;;;;;;;14.77;11.03;;;4.40;99.90;;;;;;5029194;28;20256;-29
2023/10/18 01:03:29;;;;;;;14.00;10.77;;;4.40;99.90;;;;;;5031644;28;20179;-28
2023/10/18 01:06:12;;;;;;;19.73;12.60;;;4.30;99.90;;;;;;5031590;28;20225;-28
2023/10/18 01:08:38;;;;;;;20.03;12.80;;;4.30;99.90;;;;;;5015125;28;20178;-29
2023/10/18 01:11:07;;;;;;;20.20;14.23;;;4.20;99.90;;;;;;5031668;28;20225;-28
2023/10/18 01:13:37;;;;;;;19.90;13.63;;;4.10;99.90;;;;;;5031279;28;20197;-28
2023/10/18 01:16:14;;;;;;;19.47;12.90;;;4.10;99.90;;;;;;5015400;28;20186;-28
2023/10/18 01:18:44;;;;;;;16.77;13.27;;;4.00;99.90;;;;;;5016015;28;20210;-28
2023/10/18 01:21:19;;;;;;;16.93;12.80;;;4.10;99.90;;;;;;5031979;28;20198;-28
2023/10/18 01:23:50;;;;;;;18.23;12.43;;;4.10;99.90;;;;;;5023418;28;20176;-28
2023/10/18 01:26:18;;;;;;;14.37;12.23;;;4.20;99.90;;;;;;5014789;28;20270;-29
2023/10/18 01:28:44;;;;;;;18.03;12.67;;;4.20;99.90;;;;;;5013595;28;20191;-29
2023/10/18 01:31:12;;;;;;;16.07;12.73;;;4.20;99.90;;;;;;5014666;28;20214;-27
2023/10/18 01:33:51;;;;;;;15.37;12.63;;;4.20;99.90;;;;;;5013557;28;20189;-27
2023/10/18 01:36:20;;;;;;;15.63;12.40;;;4.30;99.90;;;;;;5010900;28;20198;-27
2023/10/18 01:38:48;;;;;;;17.37;12.47;;;4.30;99.90;;;;;;5014609;28;20253;-27
2023/10/18 01:41:28;;;;;;;16.07;11.97;;;4.30;99.90;;;;;;5031207;28;20212;-28
2023/10/18 01:44:05;;;;;;;15.87;12.23;;;4.30;99.90;;;;;;5013684;28;20265;-27
2023/10/18 01:46:31;;;;;;;14.53;11.80;;;4.30;99.90;;;;;;5013236;28;20182;-28
2023/10/18 01:48:57;;;;;;;15.13;11.10;;;4.30;99.90;;;;;;5010657;28;20195;-28
2023/10/18 01:51:23;;;;;;;15.47;11.03;;;4.30;99.90;;;;;;5030426;28;20214;-27
2023/10/18 01:53:50;;;;;;;14.93;11.70;;;4.30;99.90;;;;;;5030937;28;20190;-27
2023/10/18 01:56:19;;;;;;;14.53;10.93;;;4.30;99.90;;;;;;5014912;28;20180;-29
2023/10/18 01:58:46;;;;;;;16.33;11.77;;;4.40;99.90;;;;;;5030444;28;20233;-29
2023/10/18 02:01:16;;;;;;;16.00;12.20;;;4.40;99.90;;;;;;5014390;28;20222;-27
2023/10/18 02:03:44;;;;;;;18.10;13.10;;;4.40;99.90;;;;;;5013742;28;20187;-27
2023/10/18 02:06:10;;;;;;;17.73;12.23;;;4.40;99.90;;;;;;5011180;28;20644;-28
2023/10/18 02:08:36;;;;;;;15.47;11.70;;;4.40;99.90;;;;;;5030576;28;20245;-28
2023/10/18 02:11:07;;;;;;;16.60;12.37;;;4.40;99.90;;;;;;5030386;28;20298;-28
2023/10/18 02:13:33;;;;;;;16.23;11.47;;;4.30;99.90;;;;;;5030372;28;20273;-27
2023/10/18 02:16:14;;;;;;;16.27;12.10;;;4.20;99.90;;;;;;5014198;28;20178;-28
2023/10/18 02:18:40;;;;;;;13.77;11.27;;;4.30;99.90;;;;;;5030748;28;20214;-28
2023/10/18 02:21:06;;;;;;;17.60;12.37;;;4.30;99.90;;;;;;5011878;28;20204;-30
2023/10/18 02:23:34;;;;;;;17.17;12.63;;;4.30;99.90;;;;;;5013712;28;20179;-28
2023/10/18 02:26:22;;;;;;;17.50;12.83;;;4.30;99.90;;;;;;5012234;28;20186;-28
2023/10/18 02:28:48;;;;;;;14.47;11.70;;;4.30;99.90;;;;;;5020637;28;20275;-28
2023/10/18 02:31:15;;;;;;;16.53;12.50;;;4.30;99.90;;;;;;5028658;28;20281;-27
2023/10/18 02:33:44;;;;;;;16.27;12.40;;;4.30;99.90;;;;;;5029238;28;20271;-28
2023/10/18 02:36:11;;;;;;;15.83;12.60;;;4.30;99.90;;;;;;5013469;28;20189;-27
2023/10/18 02:38:41;;;;;;;16.23;11.17;;;4.30;99.90;;;;;;5029536;28;20298;-27
2023/10/18 02:43:45;;;;;;;14.60;11.40;;;4.30;99.90;;;;;;5031025;28;20279;-28
2023/10/18 02:46:23;;;;;;;14.77;11.80;;;4.30;99.90;;;;;;5029296;28;20269;-29
2023/10/18 02:48:52;;;;;;;15.33;11.53;;;4.30;99.90;;;;;;5011946;28;20179;-28
2023/10/18 02:51:22;;;;;;;14.63;11.07;;;4.30;99.90;;;;;;5026352;28;20197;-28
2023/10/18 02:54:07;;;;;;;15.47;11.63;;;4.30;99.90;;;;;;5022153;28;20179;-28
2023/10/18 02:56:37;;;;;;;16.30;11.90;;;4.30;99.90;;;;;;5027808;28;20190;-27
2023/10/18 02:59:06;;;;;;;14.20;11.00;;;4.30;99.90;;;;;;5027951;28;20281;-28
2023/10/18 03:01:44;;;;;;;17.20;10.67;;;4.30;99.90;;;;;;5014880;28;20225;-28
2023/10/18 03:04:16;;;;;;;13.63;10.63;;;4.20;99.90;;;;;;5028918;28;20178;-30
2023/10/18 03:06:45;;;;;;;13.43;10.07;;;4.20;99.90;;;;;;5011810;28;20186;-28
2023/10/18 03:12:13;;;;;;;13.50;9.20;;;4.10;99.90;;;;;;5075151;23;20311;-27
2023/10/18 03:14:41;;;;;;;12.67;9.67;;;4.10;99.90;;;;;;5025921;28;20352;-27
2023/10/18 03:17:22;;;;;;;15.13;11.50;;;4.10;99.90;;;;;;5028971;28;22108;-27
2023/10/18 03:19:50;;;;;;;13.30;10.83;;;4.10;99.90;;;;;;5004438;28;20194;-28
2023/10/18 03:22:20;;;;;;;15.60;11.93;;;4.10;99.90;;;;;;5027430;28;20195;-27
2023/10/18 03:24:48;;;;;;;13.53;11.20;;;4.10;99.90;;;;;;5029537;28;20347;-27
2023/10/18 03:27:14;;;;;;;12.43;9.97;;;4.10;99.90;;;;;;5029002;28;20179;-28
2023/10/18 03:29:43;;;;;;;12.90;10.20;;;4.10;99.90;;;;;;5031329;28;20190;-27
2023/10/18 03:32:19;;;;;;;12.07;10.03;;;4.00;99.90;;;;;;5018212;28;20215;-28
2023/10/18 03:34:45;;;;;;;11.27;9.50;;;4.00;99.90;;;;;;5028115;28;20186;-27
2023/10/18 03:37:46;;;;;;;11.43;9.30;;;4.00;99.90;;;;;;5028606;28;20390;-27
2023/10/18 03:40:10;;;;;;;12.33;10.20;;;4.00;99.90;;;;;;5028207;28;20189;-27
2023/10/18 03:42:37;;;;;;;13.17;10.47;;;3.90;99.90;;;;;;5029238;28;20207;-27
2023/10/18 03:45:10;;;;;;;14.97;11.60;;;3.90;99.90;;;;;;5009778;28;20194;-27
2023/10/18 03:47:37;;;;;;;20.10;16.03;;;3.90;99.90;;;;;;5031962;28;20190;-27
2023/10/18 03:50:16;;;;;;;30.93;25.33;;;3.90;99.90;;;;;;5016701;28;20175;-27
2023/10/18 03:52:45;;;;;;;25.70;20.93;;;3.90;99.90;;;;;;5022310;28;20271;-27
2023/10/18 03:55:39;;;;;;;18.47;15.17;;;3.90;99.90;;;;;;5032749;28;20189;-27
2023/10/18 03:58:08;;;;;;;13.57;10.37;;;3.80;99.90;;;;;;5033553;28;20205;-27
2023/10/18 04:00:46;;;;;;;13.00;10.23;;;3.70;99.90;;;;;;5032105;28;20174;-27
2023/10/18 04:03:20;;;;;;;12.50;10.10;;;3.70;99.90;;;;;;5016621;28;20216;-27
2023/10/18 04:05:52;;;;;;;13.13;10.40;;;3.70;99.90;;;;;;5030456;28;20198;-27
2023/10/18 04:08:18;;;;;;;12.50;9.93;;;3.70;99.90;;;;;;5031978;28;20178;-27
2023/10/18 04:10:44;;;;;;;13.50;10.30;;;3.60;99.90;;;;;;5041137;28;20247;-28
2023/10/18 04:13:12;;;;;;;12.60;10.17;;;3.60;99.90;;;;;;5015712;28;20264;-27
2023/10/18 04:15:39;;;;;;;13.00;9.83;;;3.60;99.90;;;;;;5031519;28;20175;-27
2023/10/18 04:20:35;;;;;;;11.23;9.33;;;3.60;99.90;;;;;;5032333;28;20181;-27
2023/10/18 04:23:14;;;;;;;10.80;9.40;;;3.60;99.90;;;;;;5032326;28;20305;-27
2023/10/18 04:26:04;;;;;;;10.93;9.23;;;3.60;99.90;;;;;;5033519;28;20179;-27
2023/10/18 04:28:37;;;;;;;10.20;8.30;;;3.60;99.90;;;;;;5035044;28;20178;-28
2023/10/18 04:31:08;;;;;;;11.13;8.50;;;3.60;99.90;;;;;;5031778;28;20218;-27
2023/10/18 04:33:35;;;;;;;10.27;9.10;;;3.60;99.90;;;;;;5033612;28;20201;-27
2023/10/18 04:36:20;;;;;;;10.33;8.77;;;3.70;99.90;;;;;;5033151;28;20196;-27
2023/10/18 04:38:47;;;;;;;11.20;9.27;;;3.60;99.90;;;;;;5032047;28;20300;-27
2023/10/18 04:41:23;;;;;;;11.77;10.07;;;3.60;99.90;;;;;;5014455;28;20281;-27
2023/10/18 04:44:07;;;;;;;12.13;9.03;;;3.60;99.90;;;;;;5032233;28;20182;-27
2023/10/18 04:46:37;;;;;;;11.10;8.90;;;3.60;99.90;;;;;;5032366;28;20181;-27
2023/10/18 04:54:59;;;;;;;11.70;8.37;;;3.60;99.90;;;;;;5037717;28;20182;-27
2023/10/18 04:56:56;;;;;;;11.30;9.10;;;3.60;99.90;;;;;;5019544;28;20198;-27
2023/10/18 05:00:11;;;;;;;11.87;9.17;;;3.50;99.90;;;;;;5031398;28;20206;-26
2023/10/18 05:02:17;;;;;;;13.33;10.00;;;3.50;99.90;;;;;;5033276;28;20207;-27
2023/10/18 05:04:46;;;;;;;12.40;9.87;;;3.50;99.90;;;;;;5015104;28;20187;-27
2023/10/18 05:09:41;;;;;;;12.87;9.20;;;3.50;99.90;;;;;;5034248;28;20229;-27
2023/10/18 05:14:50;;;;;;;10.53;9.23;;;3.50;99.90;;;;;;5032714;28;20186;-27
2023/10/18 05:17:23;;;;;;;9.80;8.77;;;3.40;99.90;;;;;;5030495;28;20210;-27
2023/10/18 05:19:50;;;;;;;13.10;8.93;;;3.40;99.90;;;;;;5040427;28;20272;-27
2023/10/18 05:22:23;;;;;;;11.07;9.10;;;3.40;99.90;;;;;;5015429;28;20205;-28
2023/10/18 05:27:38;;;;;;;11.27;9.23;;;3.30;99.90;;;;;;5031581;28;20182;-27
2023/10/18 05:30:14;;;;;;;10.83;9.37;;;3.10;99.90;;;;;;5014380;28;20191;-27
2023/10/18 05:33:02;;;;;;;10.00;8.20;;;3.20;99.90;;;;;;5014089;28;20207;-27
2023/10/18 05:35:35;;;;;;;11.70;9.67;;;3.20;99.90;;;;;;5031149;28;20194;-27
2023/10/18 05:38:18;;;;;;;12.60;9.80;;;3.20;99.90;;;;;;5014772;28;20198;-27
2023/10/18 05:40:55;;;;;;;12.57;10.83;;;3.30;99.90;;;;;;5005644;28;20202;-28
2023/10/18 05:43:31;;;;;;;11.90;9.83;;;3.30;99.90;;;;;;5030951;28;20182;-27
2023/10/18 05:45:59;;;;;;;10.50;9.40;;;3.30;99.90;;;;;;5031573;28;20182;-27
2023/10/18 05:48:26;;;;;;;10.63;9.50;;;3.30;99.90;;;;;;5032511;28;20194;-28
2023/10/18 05:51:34;;;;;;;13.07;10.20;;;3.40;99.90;;;;;;5033423;28;20201;-27
2023/10/18 05:53:43;;;;;;;14.17;11.40;;;3.40;99.90;;;;;;5033415;28;20186;-27
2023/10/18 05:56:08;;;;;;;14.90;11.93;;;3.40;99.90;;;;;;5032079;28;20185;-27
2023/10/18 05:58:34;;;;;;;14.13;11.60;;;3.40;99.90;;;;;;5022665;28;20206;-27
2023/10/18 06:01:02;;;;;;;13.67;11.20;;;3.40;99.90;;;;;;5039209;28;20185;-27
2023/10/18 06:03:39;;;;;;;12.13;10.87;;;3.50;99.90;;;;;;5020144;28;20220;-27
2023/10/18 06:06:08;;;;;;;15.30;11.23;;;3.50;99.90;;;;;;5031596;28;20257;-27
2023/10/18 06:08:34;;;;;;;11.90;10.00;;;3.50;99.90;;;;;;5013988;28;20218;-27
2023/10/18 06:11:02;;;;;;;12.47;10.33;;;3.60;99.90;;;;;;5030601;28;20273;-27
2023/10/18 06:13:28;;;;;;;11.10;9.60;;;3.60;99.90;;;;;;5014074;28;20194;-27
2023/10/18 06:15:58;;;;;;;13.33;10.83;;;3.60;99.90;;;;;;5030538;28;20662;-27
2023/10/18 06:18:30;;;;;;;12.13;10.33;;;3.70;99.90;;;;;;5013412;28;20236;-27
2023/10/18 06:20:59;;;;;;;15.67;10.43;;;3.70;99.90;;;;;;5031416;28;20209;-27
2023/10/18 06:23:36;;;;;;;13.13;11.23;;;3.70;99.90;;;;;;5027325;28;20236;-27
2023/10/18 06:28:53;;;;;;;14.10;10.50;;;3.90;99.90;;;;;;5030020;28;20186;-28
2023/10/18 06:31:21;;;;;;;13.80;10.70;;;3.80;99.90;;;;;;5013825;28;20352;-27
2023/10/18 06:33:51;;;;;;;12.57;10.57;;;3.90;99.90;;;;;;5030001;28;20274;-27
2023/10/18 06:36:21;;;;;;;14.53;11.93;;;3.80;99.90;;;;;;5013888;28;20182;-28
2023/10/18 06:38:48;;;;;;;13.23;10.87;;;3.90;99.90;;;;;;5029961;28;20282;-28
2023/10/18 06:41:18;;;;;;;13.90;11.17;;;3.90;99.90;;;;;;5034787;28;20204;-27
2023/10/18 06:43:45;;;;;;;13.53;10.60;;;4.00;99.90;;;;;;5016150;28;20216;-28
2023/10/18 06:46:29;;;;;;;13.83;11.47;;;4.10;99.90;;;;;;5030342;28;20178;-27
2023/10/18 06:48:58;;;;;;;15.73;11.57;;;4.20;99.90;;;;;;5030042;28;20229;-27
2023/10/18 06:51:31;;;;;;;14.43;11.13;;;4.20;99.90;;;;;;5013792;28;20198;-28
2023/10/18 06:53:59;;;;;;;15.47;12.13;;;4.30;99.90;;;;;;5013862;28;20190;-27
2023/10/18 06:56:26;;;;;;;14.13;11.63;;;4.40;99.90;;;;;;5013241;28;20187;-28
2023/10/18 06:58:53;;;;;;;15.90;11.50;;;4.40;99.90;;;;;;5013553;28;20202;-28
2023/10/18 07:01:26;;;;;;;15.20;11.60;;;4.40;99.90;;;;;;5030078;28;20205;-27
2023/10/18 07:03:52;;;;;;;16.90;12.77;;;4.40;99.90;;;;;;5031835;28;20182;-28
2023/10/18 07:06:18;;;;;;;17.87;13.20;;;4.40;99.90;;;;;;5019628;28;20192;-27
2023/10/18 07:08:45;;;;;;;18.23;13.63;;;4.40;99.90;;;;;;5029661;28;20179;-28
2023/10/18 07:11:18;;;;;;;18.43;13.57;;;4.40;99.90;;;;;;5029371;28;20202;-27
2023/10/18 07:13:50;;;;;;;18.43;13.00;;;4.50;99.90;;;;;;5031249;28;20198;-27
2023/10/18 07:21:45;;;;;;;17.83;14.30;;;4.60;99.90;;;;;;5028983;28;20203;-27
2023/10/18 07:24:10;;;;;;;17.03;14.03;;;4.50;99.90;;;;;;5031390;28;20313;-29
2023/10/18 07:26:37;;;;;;;16.07;11.90;;;4.50;99.90;;;;;;5013509;28;20257;-27
2023/10/18 07:29:09;;;;;;;14.67;12.37;;;4.50;99.90;;;;;;5029835;28;20190;-27
2023/10/18 07:31:38;;;;;;;13.17;11.00;;;4.50;99.90;;;;;;5013283;28;20198;-28
2023/10/18 07:34:11;;;;;;;13.63;11.83;;;4.60;99.90;;;;;;5029550;28;20183;-27
2023/10/18 07:36:38;;;;;;;12.47;10.53;;;4.70;99.90;;;;;;5013213;28;20205;-27
2023/10/18 07:39:11;;;;;;;14.53;11.87;;;4.80;99.90;;;;;;5013143;28;20239;-28
2023/10/18 07:41:38;;;;;;;13.60;12.10;;;4.90;99.90;;;;;;5012814;28;20198;-27
2023/10/18 07:44:07;;;;;;;16.70;13.27;;;5.00;99.90;;;;;;5012853;28;20187;-27
2023/10/18 07:46:40;;;;;;;16.37;12.63;;;5.20;99.90;;;;;;5029698;28;20180;-28
2023/10/18 07:49:19;;;;;;;14.27;11.90;;;5.30;99.90;;;;;;5016084;28;20187;-28
2023/10/18 07:51:49;;;;;;;15.03;12.23;;;5.40;99.90;;;;;;5033115;28;20203;-26
2023/10/18 07:54:16;;;;;;;15.20;12.93;;;5.50;99.90;;;;;;5012370;28;20179;-28
2023/10/18 07:56:49;;;;;;;13.63;11.27;;;5.70;99.90;;;;;;5013107;28;20291;-28
2023/10/18 07:59:29;;;;;;;15.90;12.77;;;5.90;99.90;;;;;;5029441;28;20207;-27
2023/10/18 08:04:45;;;;;;;18.83;13.90;;;6.20;99.90;;;;;;5029054;28;20184;-28
2023/10/18 08:07:15;;;;;;;15.40;12.60;;;6.30;99.90;;;;;;5032651;28;20234;-28
2023/10/18 08:09:44;;;;;;;15.87;12.40;;;6.40;99.90;;;;;;5027845;28;20208;-28
2023/10/18 08:15:13;;;;;;;15.67;12.27;;;6.50;99.90;;;;;;5027810;28;20286;-28
2023/10/18 08:22:50;;;;;;;18.93;13.23;;;7.00;99.90;;;;;;5028493;28;20205;-27
2023/10/18 08:25:22;;;;;;;16.07;12.77;;;7.10;99.90;;;;;;5028493;28;20197;-28
2023/10/18 08:27:51;;;;;;;14.10;11.50;;;7.10;99.90;;;;;;5027708;28;20194;-27
2023/10/18 08:33:03;;;;;;;14.87;12.33;;;7.40;99.90;;;;;;5031483;28;20216;-27
2023/10/18 08:35:29;;;;;;;15.40;12.53;;;7.60;99.90;;;;;;5037706;28;20189;-28
2023/10/18 08:37:55;;;;;;;13.43;11.30;;;7.70;99.90;;;;;;5031961;28;20266;-28
2023/10/18 08:41:11;;;;;;;15.73;12.20;;;7.80;99.90;;;;;;5021144;28;20174;-28
2023/10/18 08:43:28;;;;;;;15.77;12.97;;;7.80;99.90;;;;;;5030311;28;20179;-27
2023/10/18 08:45:55;;;;;;;14.87;12.63;;;7.90;99.90;;;;;;5032601;28;20178;-28
2023/10/18 08:48:28;;;;;;;12.20;10.90;;;7.90;99.90;;;;;;5032310;28;20205;-28
2023/10/18 08:50:59;;;;;;;15.33;12.60;;;7.90;99.90;;;;;;5033649;28;20197;-28
2023/10/18 08:53:31;;;;;;;13.93;11.60;;;8.00;99.90;;;;;;5032388;28;20246;-28
2023/10/18 08:55:57;;;;;;;15.53;11.87;;;8.10;99.90;;;;;;5016085;28;20232;-28
2023/10/18 08:58:30;;;;;;;16.00;13.00;;;8.10;99.90;;;;;;5014406;28;20213;-28
2023/10/18 09:03:27;;;;;;;13.23;11.37;;;8.20;99.90;;;;;;5031658;28;20183;-28
2023/10/18 09:06:07;;;;;;;15.13;12.30;;;8.20;99.90;;;;;;5015930;28;20187;-28
2023/10/18 09:08:42;;;;;;;15.23;12.33;;;8.30;99.90;;;;;;5015441;28;20185;-28
2023/10/18 09:13:42;;;;;;;15.23;12.93;;;8.40;99.90;;;;;;4975787;28;20225;-32
2023/10/18 09:16:11;;;;;;;18.37;12.63;;;8.50;99.90;;;;;;4956020;28;20263;-32
2023/10/18 09:18:37;;;;;;;15.23;12.23;;;8.50;99.90;;;;;;4956646;28;20236;-32
2023/10/18 09:21:07;;;;;;;14.33;11.83;;;8.60;99.90;;;;;;4973441;28;20181;-32
2023/10/18 09:23:33;;;;;;;13.53;12.03;;;8.70;99.90;;;;;;4992517;28;20184;-32
2023/10/18 09:28:32;;;;;;;16.63;11.83;;;8.80;99.90;;;;;;4992329;28;20179;-32
2023/10/18 09:31:11;;;;;;;14.77;12.30;;;8.90;99.90;;;;;;4991801;28;20202;-32
2023/10/18 09:33:58;;;;;;;15.43;11.43;;;9.10;99.90;;;;;;4994014;28;20184;-32
2023/10/18 09:36:25;;;;;;;13.77;12.03;;;9.20;99.90;;;;;;4976076;28;20194;-32
2023/10/18 09:38:53;;;;;;;14.03;12.47;;;9.40;99.90;;;;;;4992092;28;20339;-32
2023/10/18 09:41:21;;;;;;;13.90;12.03;;;9.50;99.90;;;;;;4993507;28;20188;-32
2023/10/18 09:43:47;;;;;;;15.10;13.30;;;9.60;99.90;;;;;;4982605;28;20180;-32
2023/10/18 09:46:14;;;;;;;15.60;13.27;;;9.70;99.90;;;;;;4975911;28;20203;-32
2023/10/18 09:48:45;;;;;;;14.87;11.73;;;9.80;99.90;;;;;;4991947;28;20192;-32
2023/10/18 09:51:20;;;;;;;15.50;12.03;;;9.90;99.90;;;;;;4991881;28;20192;-32
2023/10/18 09:53:51;;;;;;;14.80;12.57;;;10.00;99.90;;;;;;4990459;28;20658;-32
2023/10/18 09:56:45;;;;;;;14.77;11.70;;;10.20;99.90;;;;;;4983895;28;20188;-32
2023/10/18 09:59:25;;;;;;;14.33;12.00;;;10.30;99.90;;;;;;4973379;28;20211;-32
2023/10/18 10:02:07;;;;;;;12.90;11.17;;;10.40;99.90;;;;;;4979806;28;20206;-32
2023/10/18 10:04:35;;;;;;;12.33;11.03;;;10.50;99.90;;;;;;4985600;28;20196;-32
2023/10/18 10:09:50;;;;;;;12.47;9.50;;;10.50;99.90;;;;;;4991596;28;20214;-32
2023/10/18 10:12:19;;;;;;;10.60;9.50;;;10.40;99.90;;;;;;4989240;28;20208;-32
2023/10/18 10:14:45;;;;;;;10.77;9.33;;;10.40;99.90;;;;;;4983730;28;20266;-32
2023/10/18 10:17:20;;;;;;;13.80;9.33;;;10.40;99.90;;;;;;4976722;28;20425;-32
2023/10/18 10:19:53;;;;;;;10.27;9.17;;;10.50;99.90;;;;;;4990924;28;20196;-32
2023/10/18 10:22:24;;;;;;;12.70;9.10;;;10.50;99.90;;;;;;4990932;28;20235;-32
2023/10/18 10:25:11;;;;;;;11.03;9.07;;;10.60;99.90;;;;;;4975220;28;20182;-32
2023/10/18 10:32:58;;;;;;;14.43;12.37;;;10.80;99.90;;;;;;4991127;28;20211;-32
2023/10/18 10:35:28;;;;;;;15.57;12.10;;;10.80;99.90;;;;;;4991471;28;20194;-32
2023/10/18 10:38:18;;;;;;;15.53;12.07;;;10.80;99.90;;;;;;4991210;28;20213;-32
2023/10/18 10:40:50;;;;;;;13.83;11.70;;;10.80;99.90;;;;;;4977992;28;20229;-33
2023/10/18 10:43:19;;;;;;;15.93;11.93;;;10.80;99.90;;;;;;4981921;28;20207;-32
2023/10/18 10:48:18;;;;;;;14.33;12.83;;;10.80;99.90;;;;;;4986202;28;20194;-32
2023/10/18 10:50:52;;;;;;;14.00;12.37;;;10.80;99.90;;;;;;4984989;28;20182;-32
2023/10/18 10:54:01;;;;;;;13.30;11.70;;;10.90;99.90;;;;;;4991578;28;20209;-32
2023/10/18 10:56:26;;;;;;;16.00;12.70;;;10.90;99.90;;;;;;4976748;28;20193;-32
2023/10/18 10:59:03;;;;;;;13.17;11.70;;;10.90;99.90;;;;;;4982171;28;20237;-32
2023/10/18 11:04:29;;;;;;;12.47;10.47;;;10.90;99.90;;;;;;4987419;28;20210;-32
2023/10/18 11:07:03;;;;;;;13.47;10.40;;;11.00;99.90;;;;;;4985292;28;20194;-32
2023/10/18 11:09:34;;;;;;;11.50;10.30;;;10.90;99.90;;;;;;4978587;28;20186;-32
2023/10/18 11:12:04;;;;;;;12.43;10.30;;;11.00;99.90;;;;;;4978854;28;20237;-32
2023/10/18 11:14:35;;;;;;;15.77;11.67;;;10.90;99.90;;;;;;4974332;28;20210;-33
2023/10/18 11:19:41;;;;;;;12.33;10.47;;;11.00;99.90;;;;;;4997345;28;20278;-33
2023/10/18 11:22:11;;;;;;;14.30;11.20;;;11.00;99.90;;;;;;4977622;28;20196;-32
2023/10/18 11:24:39;;;;;;;17.43;15.50;;;11.10;99.90;;;;;;4981362;28;20198;-32
2023/10/18 11:27:09;;;;;;;19.50;17.23;;;11.10;99.90;;;;;;4980096;28;20277;-32
2023/10/18 11:29:39;;;;;;;20.20;16.40;;;11.20;99.90;;;;;;4953099;28;20192;-32
2023/10/18 11:32:15;;;;;;;15.13;11.73;;;11.30;99.90;;;;;;4971138;28;20219;-32
2023/10/18 11:34:44;;;;;;;13.13;11.13;;;11.40;99.90;;;;;;4956727;28;20197;-33
2023/10/18 22:01:59;;;;;;;18.27;16.37;;;10.40;99.90;;;;;;4992416;28;20299;-32
2023/10/18 22:04:25;;;;;;;19.67;17.40;;;10.40;99.90;;;;;;4970000;28;20236;-33
2023/10/18 22:06:54;;;;;;;18.53;16.57;;;10.40;99.90;;;;;;4989871;28;20185;-32
2023/10/18 22:09:32;;;;;;;24.43;20.10;;;10.40;99.90;;;;;;4972696;28;20205;-32
2023/10/18 22:11:59;;;;;;;20.90;17.07;;;10.50;99.90;;;;;;4973062;28;20217;-32
2023/10/18 22:14:25;;;;;;;21.23;18.93;;;10.40;99.90;;;;;;4990966;28;20224;-32
2023/10/18 22:16:54;;;;;;;19.77;17.47;;;10.50;99.90;;;;;;4989717;28;20185;-32
2023/10/18 22:19:26;;;;;;;21.93;18.43;;;10.40;99.90;;;;;;4987847;28;20218;-32
2023/10/18 22:21:53;;;;;;;22.10;18.53;;;10.50;99.90;;;;;;4992368;28;20174;-32
2023/10/18 22:24:19;;;;;;;20.27;18.07;;;10.40;99.90;;;;;;4974862;28;20185;-32
2023/10/18 22:26:48;;;;;;;24.20;18.17;;;10.50;99.90;;;;;;4974242;28;20185;-32
2023/10/18 22:29:20;;;;;;;20.47;17.43;;;10.40;99.90;;;;;;4975456;28;20195;-33
2023/10/18 22:31:47;;;;;;;20.80;18.23;;;10.50;99.90;;;;;;4990810;28;20329;-32
2023/10/18 22:34:14;;;;;;;22.10;19.13;;;10.50;99.90;;;;;;4978621;28;20197;-32
2023/10/18 22:36:42;;;;;;;22.20;17.60;;;10.40;99.90;;;;;;4976678;28;20180;-33
2023/10/18 22:39:12;;;;;;;18.83;16.27;;;10.40;99.90;;;;;;4975842;28;20206;-32
2023/10/18 22:41:46;;;;;;;19.73;17.40;;;10.40;99.90;;;;;;4991322;28;20181;-32
2023/10/18 22:44:37;;;;;;;19.83;17.20;;;10.40;99.90;;;;;;4989239;28;20173;-32
2023/10/18 22:47:20;;;;;;;21.27;18.13;;;10.50;99.90;;;;;;4974134;28;20215;-32
2023/10/18 22:49:49;;;;;;;19.70;17.13;;;10.40;99.90;;;;;;4992391;28;20281;-32
2023/10/18 22:52:38;;;;;;;20.93;17.90;;;10.40;99.90;;;;;;4991858;28;20224;-33
2023/10/18 22:55:19;;;;;;;20.73;17.33;;;10.40;99.90;;;;;;4992462;28;20188;-32
2023/10/18 22:57:45;;;;;;;19.03;17.00;;;10.40;99.90;;;;;;4973895;28;20194;-32
2023/10/18 23:00:15;;;;;;;20.23;18.00;;;10.40;99.90;;;;;;4976095;28;20205;-32
2023/10/18 23:02:45;;;;;;;19.97;17.87;;;10.40;99.90;;;;;;4992314;28;20204;-33
2023/10/18 23:05:19;;;;;;;19.50;17.50;;;10.40;99.90;;;;;;4977076;28;20194;-32
2023/10/18 23:07:51;;;;;;;20.80;18.57;;;10.50;99.90;;;;;;4973342;28;20312;-33
2023/10/18 23:13:06;;;;;;;20.43;17.30;;;10.50;99.90;;;;;;4991496;28;20214;-32
2023/10/18 23:15:49;;;;;;;21.13;18.17;;;10.50;99.90;;;;;;4974607;28;20186;-32
2023/10/18 23:18:18;;;;;;;19.17;16.97;;;10.50;99.90;;;;;;4989960;28;20234;-32
2023/10/18 23:20:57;;;;;;;18.13;16.23;;;10.50;99.90;;;;;;4990092;28;20184;-32
2023/10/18 23:23:38;;;;;;;20.90;16.93;;;10.60;99.90;;;;;;4974499;28;20200;-32
2023/10/18 23:28:53;;;;;;;20.07;17.70;;;10.60;99.90;;;;;;4987847;28;20213;-32
2023/10/18 23:31:32;;;;;;;20.40;18.13;;;10.60;99.90;;;;;;4992927;28;20311;-32
2023/10/18 23:34:26;;;;;;;20.63;18.43;;;10.60;99.90;;;;;;4960281;28;20240;-32
2023/10/18 23:37:00;;;;;;;20.73;18.57;;;10.60;99.90;;;;;;4974021;28;20181;-32
2023/10/18 23:39:27;;;;;;;20.17;17.30;;;10.60;99.90;;;;;;4991504;28;20256;-32
2023/10/18 23:44:55;;;;;;;18.97;16.97;;;10.60;99.90;;;;;;4990597;28;20186;-32
2023/10/18 23:48:27;;;;;;;20.43;17.63;;;10.60;99.90;;;;;;4991847;28;20307;-32
2023/10/18 23:50:33;;;;;;;21.30;17.43;;;10.60;99.90;;;;;;4994613;28;20256;-32
2023/10/18 23:53:20;;;;;;;22.10;17.97;;;10.60;99.90;;;;;;4973471;28;20226;-32
2023/10/18 23:55:54;;;;;;;19.13;17.13;;;10.60;99.90;;;;;;4989185;28;20190;-32
2023/10/18 23:58:22;;;;;;;22.07;19.70;;;10.60;99.90;;;;;;4989127;28;20233;-33
